Lemoine Town, Louisiana
Current Conditions -  °F | °C
As of 9:53 PM on Sunday 23 Nov 2014 (Local Time) from KESF Reporting Station
Clear Clear  
Wind Chill: 64°   Ceiling: Unl
Heat Index: 64°   Visibility: 10mi
Dew Point: 58°   Wind: 7mph
Humidity: 80%   Direction: 230°SW
Pressure: 29.65"   Gusts: NA
Location:  31.0386°N, 91.9871°W
Report Text: KESF 240353Z AUTO 23006KT 10SM CLR 18/14 A2965 RMK AO2 SLP038 T01780144
Loading
Personal Weather Stations






























Interactive Weather Map New forecast layout! Learn more

10-Day Weather Forecast

Advertisements
Track Severe Weather on mobile